createdAt,value
2023-05-13T00:02:45.671Z,8.25
2023-05-13T00:07:48.267Z,8.16
2023-05-13T00:12:50.790Z,8.14
2023-05-13T00:17:53.403Z,8.15
2023-05-13T00:22:58.488Z,8.22
2023-05-13T00:28:03.332Z,8.23
2023-05-13T00:33:07.760Z,8.04
2023-05-13T00:38:10.615Z,8.00
2023-05-13T00:43:13.207Z,8.13
2023-05-13T00:48:16.645Z,8.20
2023-05-13T00:53:19.419Z,8.17
2023-05-13T00:58:22.094Z,8.21
2023-05-13T01:03:37.342Z,8.13
2023-05-13T01:08:47.906Z,8.09
2023-05-13T01:13:58.383Z,8.12
2023-05-13T01:19:15.368Z,8.11
2023-05-13T01:24:18.170Z,8.08
2023-05-13T01:29:20.818Z,8.08
2023-05-13T01:34:28.395Z,8.06
2023-05-13T01:39:32.399Z,8.14
2023-05-13T01:44:39.537Z,8.24
2023-05-13T01:49:42.276Z,8.26
2023-05-13T01:54:47.816Z,8.29
2023-05-13T01:59:50.927Z,8.28
2023-05-13T02:04:53.654Z,8.24
2023-05-13T02:09:59.990Z,8.33
2023-05-13T02:15:07.385Z,8.39
2023-05-13T02:20:10.612Z,8.40
2023-05-13T02:25:13.367Z,8.38
2023-05-13T02:30:16.341Z,8.29
2023-05-13T02:35:20.646Z,8.51
2023-05-13T02:40:24.540Z,8.61
2023-05-13T02:45:27.246Z,8.71
2023-05-13T02:50:32.128Z,8.80
2023-05-13T02:55:35.003Z,8.84
2023-05-13T03:00:37.840Z,8.95
2023-05-13T03:05:40.460Z,9.06
2023-05-13T03:10:43.149Z,9.18
2023-05-13T03:15:46.070Z,9.26
2023-05-13T03:20:51.663Z,9.42
2023-05-13T03:25:54.372Z,9.58
2023-05-13T03:30:57.240Z,9.77
2023-05-13T03:36:00.041Z,10.01
2023-05-13T03:41:07.066Z,10.21
2023-05-13T03:46:11.796Z,10.44
2023-05-13T03:51:14.607Z,10.66
2023-05-13T03:56:17.580Z,10.85
2023-05-13T04:01:22.282Z,11.08
2023-05-13T04:06:27.755Z,11.29
2023-05-13T04:11:30.604Z,11.51
2023-05-13T04:16:33.301Z,11.73
2023-05-13T04:21:35.920Z,12.10
2023-05-13T04:26:39.316Z,12.46
2023-05-13T04:31:42.484Z,12.83
2023-05-13T04:36:46.891Z,13.13
2023-05-13T04:41:50.164Z,13.31
2023-05-13T04:46:55.837Z,13.55
2023-05-13T04:51:58.679Z,13.74
2023-05-13T04:57:02.167Z,13.94
2023-05-13T05:02:06.498Z,14.11
2023-05-13T05:07:09.348Z,14.26
2023-05-13T05:12:12.652Z,14.50
2023-05-13T05:17:17.003Z,14.73
2023-05-13T05:22:21.475Z,14.90
2023-05-13T05:27:24.170Z,15.13
2023-05-13T05:32:26.930Z,15.34
2023-05-13T05:37:30.583Z,15.48
2023-05-13T05:42:33.487Z,15.70
2023-05-13T05:47:36.164Z,15.97
2023-05-13T05:52:39.646Z,16.11
2023-05-13T05:57:42.620Z,16.29
2023-05-13T06:02:46.890Z,16.44
2023-05-13T06:07:50.630Z,16.63
2023-05-13T06:12:54.155Z,16.78
2023-05-13T06:17:57.302Z,16.88
2023-05-13T06:23:00.065Z,17.11
2023-05-13T06:28:03.291Z,17.23
2023-05-13T06:33:06.346Z,17.46
2023-05-13T06:38:09.186Z,17.79
2023-05-13T06:43:14.678Z,18.07
2023-05-13T06:48:21.769Z,18.22
2023-05-13T06:53:24.857Z,18.35
2023-05-13T06:58:28.151Z,18.55
2023-05-13T07:03:30.817Z,18.77
2023-05-13T07:08:33.481Z,18.92
2023-05-13T07:13:36.078Z,19.13
2023-05-13T07:18:38.820Z,19.17
2023-05-13T07:23:43.771Z,19.48
2023-05-13T07:28:47.066Z,19.73
2023-05-13T07:33:49.720Z,19.92
2023-05-13T07:38:52.303Z,19.94
2023-05-13T07:43:54.839Z,20.15
2023-05-13T07:48:57.717Z,20.25
2023-05-13T07:54:07.014Z,20.31
2023-05-13T07:59:09.685Z,20.49
2023-05-13T08:04:12.684Z,20.62
2023-05-13T08:09:15.952Z,20.75
2023-05-13T08:14:18.611Z,21.00
2023-05-13T08:19:24.053Z,21.13
2023-05-13T08:24:26.636Z,21.32
2023-05-13T08:29:30.074Z,20.89
2023-05-13T08:34:32.635Z,20.66
2023-05-13T08:39:35.309Z,21.07
2023-05-13T08:44:43.317Z,21.28
2023-05-13T08:49:46.946Z,21.52
2023-05-13T08:54:49.868Z,21.81
2023-05-13T08:59:53.037Z,21.98
2023-05-13T09:04:59.366Z,22.07
2023-05-13T09:10:02.896Z,22.05
2023-05-13T09:15:14.159Z,22.20
2023-05-13T09:20:18.095Z,22.31
2023-05-13T09:25:25.638Z,22.48
2023-05-13T09:30:31.292Z,22.87
2023-05-13T09:35:39.513Z,22.98
2023-05-13T09:40:50.105Z,23.16
2023-05-13T09:45:57.238Z,23.21
2023-05-13T09:51:00.528Z,23.28
2023-05-13T09:56:05.499Z,23.28
2023-05-13T10:01:09.026Z,23.43
2023-05-13T10:06:12.309Z,23.49
2023-05-13T10:11:17.501Z,23.58
2023-05-13T10:16:20.573Z,23.79
2023-05-13T10:21:24.323Z,23.82
2023-05-13T10:26:28.299Z,23.73
2023-05-13T10:31:32.016Z,23.84
2023-05-13T10:36:53.315Z,24.44
2023-05-13T10:42:14.032Z,26.28
2023-05-13T10:47:17.473Z,27.14
2023-05-13T10:52:20.278Z,27.03
2023-05-13T10:57:37.904Z,27.51
2023-05-13T11:02:40.735Z,27.97
2023-05-13T11:07:56.635Z,28.53
2023-05-13T11:13:15.580Z,28.82
2023-05-13T11:18:21.124Z,29.40
2023-05-13T11:23:24.493Z,27.72
2023-05-13T11:29:05.985Z,29.68
2023-05-13T11:34:12.479Z,29.73
2023-05-13T11:39:20.960Z,28.39
2023-05-13T11:44:27.487Z,28.03
2023-05-13T11:49:32.284Z,28.16
